createdAt,value
2022-09-07T00:01:56.228Z,2.65
2022-09-07T00:04:22.997Z,2.53
2022-09-07T00:06:49.728Z,2.55
2022-09-07T00:09:18.104Z,2.47
2022-09-07T00:11:45.133Z,3.23
2022-09-07T00:14:11.839Z,3.23
2022-09-07T00:16:38.590Z,2.77
2022-09-07T00:19:05.340Z,2.96
2022-09-07T00:21:32.226Z,2.94
2022-09-07T00:23:59.244Z,2.78
2022-09-07T00:26:28.951Z,2.57
2022-09-07T00:29:00.808Z,2.74
2022-09-07T00:31:29.364Z,2.56
2022-09-07T00:33:59.217Z,2.53
2022-09-07T00:36:27.067Z,2.78
2022-09-07T00:38:54.186Z,2.99
2022-09-07T00:41:22.930Z,2.49
2022-09-07T00:43:58.600Z,2.65
2022-09-07T00:46:30.655Z,2.75
2022-09-07T00:49:09.378Z,2.77
2022-09-07T00:51:40.779Z,2.67
2022-09-07T00:54:26.812Z,2.62
2022-09-07T00:56:54.030Z,2.71
2022-09-07T00:59:28.869Z,2.93
2022-09-07T01:01:55.925Z,2.90
2022-09-07T01:04:24.398Z,3.11
2022-09-07T01:06:55.150Z,2.67
2022-09-07T01:09:25.545Z,2.83
2022-09-07T01:11:54.746Z,2.67
2022-09-07T01:14:27.946Z,2.85
2022-09-07T01:17:16.776Z,3.01
2022-09-07T01:20:22.132Z,2.70
2022-09-07T01:23:34.331Z,2.95
2022-09-07T01:26:34.147Z,2.68
2022-09-07T01:29:18.161Z,3.22
2022-09-07T01:31:50.768Z,3.01
2022-09-07T01:34:33.573Z,2.80
2022-09-07T01:37:03.213Z,2.87
2022-09-07T01:39:51.158Z,3.10
2022-09-07T01:42:25.233Z,3.16
2022-09-07T01:45:02.088Z,2.89
2022-09-07T01:47:33.899Z,3.10
2022-09-07T01:50:18.323Z,2.94
2022-09-07T01:52:56.547Z,2.83
2022-09-07T01:55:38.861Z,2.89
2022-09-07T01:58:14.757Z,2.97
2022-09-07T02:00:51.361Z,2.88
2022-09-07T02:03:35.206Z,3.12
2022-09-07T02:06:19.988Z,2.84
2022-09-07T02:09:02.623Z,2.98
2022-09-07T02:11:49.673Z,2.68
2022-09-07T02:14:24.936Z,2.71
2022-09-07T02:17:14.529Z,2.94
2022-09-07T02:19:50.922Z,2.71
2022-09-07T02:22:26.681Z,2.85
2022-09-07T02:24:59.710Z,2.29
2022-09-07T02:27:45.517Z,2.46
2022-09-07T02:30:12.776Z,2.45
2022-09-07T02:32:39.475Z,2.41
2022-09-07T02:35:06.794Z,2.61
2022-09-07T02:37:35.663Z,2.34
2022-09-07T02:40:02.912Z,2.45
2022-09-07T02:42:33.866Z,2.56
2022-09-07T02:45:05.897Z,2.48
2022-09-07T02:48:11.426Z,2.62
2022-09-07T02:50:56.273Z,2.69
2022-09-07T02:53:59.215Z,2.62
2022-09-07T02:56:25.796Z,2.64
2022-09-07T02:59:12.490Z,2.38
2022-09-07T03:02:06.634Z,2.59
2022-09-07T03:05:00.952Z,2.66
2022-09-07T03:07:43.963Z,2.80
2022-09-07T03:10:14.514Z,2.53
2022-09-07T03:12:49.676Z,2.48
2022-09-07T03:15:20.689Z,2.66
2022-09-07T03:17:47.708Z,2.77
2022-09-07T03:20:15.617Z,2.74
2022-09-07T03:22:42.808Z,2.69
2022-09-07T03:25:10.977Z,2.81
2022-09-07T03:27:37.757Z,2.54
2022-09-07T03:30:06.458Z,2.68
2022-09-07T03:32:35.602Z,2.42
2022-09-07T03:35:05.786Z,2.31
2022-09-07T03:37:32.530Z,2.37
2022-09-07T03:39:59.200Z,2.29
2022-09-07T03:42:25.947Z,2.41
2022-09-07T03:44:52.576Z,2.18
2022-09-07T03:47:19.214Z,2.21
2022-09-07T03:49:45.918Z,2.19
2022-09-07T03:52:12.553Z,2.07
2022-09-07T03:54:39.852Z,2.07
2022-09-07T03:57:06.842Z,2.18
2022-09-07T03:59:33.727Z,2.16
2022-09-07T04:02:00.962Z,2.26
2022-09-07T04:04:28.339Z,2.17
2022-09-07T04:06:55.142Z,2.31
2022-09-07T04:09:21.828Z,2.32
2022-09-07T04:11:48.864Z,2.24
2022-09-07T04:14:16.753Z,2.35
2022-09-07T04:16:43.881Z,2.21
2022-09-07T04:19:10.542Z,2.28
2022-09-07T04:21:37.274Z,2.39
2022-09-07T04:24:03.965Z,2.14
2022-09-07T04:26:33.431Z,2.54
2022-09-07T04:29:00.952Z,2.40
2022-09-07T04:31:27.676Z,2.44
2022-09-07T04:33:55.930Z,2.49
2022-09-07T04:36:23.491Z,2.69
2022-09-07T04:38:58.018Z,2.54
2022-09-07T04:41:24.802Z,2.47
2022-09-07T04:43:57.356Z,2.29
2022-09-07T04:46:33.372Z,2.75
2022-09-07T04:49:02.705Z,2.58
2022-09-07T04:51:31.774Z,2.24
2022-09-07T04:54:01.010Z,2.53
2022-09-07T04:56:28.317Z,2.47
2022-09-07T04:58:55.394Z,2.36
2022-09-07T05:01:24.391Z,2.52
2022-09-07T05:03:52.140Z,2.41
2022-09-07T05:06:21.744Z,2.32
2022-09-07T05:08:51.632Z,2.20
2022-09-07T05:11:23.807Z,2.30
2022-09-07T05:13:53.023Z,2.24
2022-09-07T05:16:23.006Z,2.54
2022-09-07T05:18:55.595Z,2.43
2022-09-07T05:21:25.457Z,2.51
2022-09-07T05:23:55.816Z,2.62
2022-09-07T05:26:25.263Z,2.60
2022-09-07T05:28:51.995Z,2.70
2022-09-07T05:31:23.617Z,2.43
2022-09-07T05:36:39.848Z,2.40
2022-09-07T05:39:07.746Z,2.21
2022-09-07T05:41:34.859Z,2.39
2022-09-07T05:46:48.430Z,2.32
2022-09-07T05:49:15.106Z,2.40
2022-09-07T05:51:41.798Z,2.27
2022-09-07T05:54:08.457Z,2.42
2022-09-07T05:56:35.992Z,2.54
2022-09-07T05:59:03.392Z,2.45
2022-09-07T06:01:30.882Z,2.22
2022-09-07T06:03:57.748Z,2.40
2022-09-07T06:06:24.476Z,2.31
2022-09-07T06:08:53.483Z,2.27
2022-09-07T06:11:22.950Z,2.37
2022-09-07T06:13:50.999Z,2.35
2022-09-07T06:16:19.080Z,2.44
2022-09-07T06:18:48.409Z,2.61
2022-09-07T06:21:18.202Z,2.67
2022-09-07T06:23:46.538Z,2.76
2022-09-07T06:26:14.557Z,2.70
2022-09-07T06:28:45.270Z,2.43
2022-09-07T06:31:17.938Z,2.70
2022-09-07T06:33:45.555Z,2.56
2022-09-07T06:36:18.246Z,2.62
2022-09-07T06:38:45.420Z,2.85
2022-09-07T06:44:04.186Z,2.80
2022-09-07T06:49:17.611Z,3.00
2022-09-07T06:51:45.921Z,2.72
2022-09-07T06:56:59.264Z,2.28
2022-09-07T06:59:25.950Z,2.20
2022-09-07T07:01:52.598Z,2.22
2022-09-07T07:04:19.286Z,2.39
2022-09-07T07:06:45.891Z,2.30
2022-09-07T07:09:12.605Z,2.51
2022-09-07T07:11:39.522Z,2.19
2022-09-07T07:14:06.142Z,2.29
2022-09-07T07:16:32.930Z,2.13
2022-09-07T07:18:59.688Z,2.12
2022-09-07T07:21:28.968Z,2.11
2022-09-07T07:24:04.998Z,1.95
2022-09-07T07:26:34.210Z,2.10
2022-09-07T07:29:02.304Z,2.15
2022-09-07T07:31:30.291Z,2.15
2022-09-07T07:33:57.023Z,1.95
2022-09-07T07:36:26.300Z,2.19
2022-09-07T07:44:16.300Z,3.17
2022-09-07T07:46:42.978Z,2.32
2022-09-07T07:49:09.694Z,2.56
2022-09-07T07:54:23.218Z,2.48
2022-09-07T07:56:49.873Z,2.37
2022-09-07T07:59:16.497Z,3.20
2022-09-07T08:01:43.330Z,2.75
2022-09-07T08:04:10.128Z,3.79
2022-09-07T08:06:36.981Z,3.49
2022-09-07T08:09:03.682Z,2.92
2022-09-07T08:11:30.305Z,5.70
2022-09-07T08:13:56.911Z,2.63
2022-09-07T08:16:23.552Z,3.34
2022-09-07T08:18:50.194Z,3.37
2022-09-07T08:21:17.057Z,8.74
2022-09-07T08:23:44.443Z,2.68
2022-09-07T08:26:11.385Z,3.06
2022-09-07T08:28:40.888Z,3.38
2022-09-07T08:31:11.150Z,2.43
2022-09-07T08:33:38.922Z,2.85
2022-09-07T08:36:08.312Z,2.57
2022-09-07T08:38:37.152Z,3.12
2022-09-07T08:41:23.976Z,3.24
2022-09-07T08:44:01.795Z,2.99
2022-09-07T08:46:51.654Z,2.36
2022-09-07T08:49:55.254Z,2.29
2022-09-07T08:52:29.073Z,5.32
2022-09-07T08:55:14.975Z,3.99
2022-09-07T08:57:52.297Z,3.41
2022-09-07T09:00:20.723Z,4.52
2022-09-07T09:03:28.747Z,3.99
2022-09-07T09:05:52.311Z,6.63
2022-09-07T09:09:00.323Z,7.00
2022-09-07T09:11:43.401Z,3.95
2022-09-07T09:17:26.736Z,3.08
2022-09-07T09:20:32.201Z,2.39
2022-09-07T09:23:04.961Z,2.25
2022-09-07T09:25:35.077Z,2.20
2022-09-07T09:28:01.844Z,2.39
2022-09-07T09:30:28.578Z,2.60
2022-09-07T09:33:18.489Z,2.53
2022-09-07T09:35:48.226Z,2.46
2022-09-07T09:38:33.289Z,3.37
2022-09-07T09:41:12.289Z,2.45
2022-09-07T09:43:46.876Z,2.39
2022-09-07T09:46:28.470Z,2.49
2022-09-07T09:49:23.788Z,2.89
2022-09-07T09:54:50.796Z,5.87
2022-09-07T09:59:04.825Z,3.23
2022-09-07T10:00:35.397Z,3.47
2022-09-07T10:06:06.369Z,2.92
2022-09-07T10:08:33.592Z,3.65
2022-09-07T10:11:06.551Z,2.52
2022-09-07T10:13:36.867Z,3.55
2022-09-07T10:16:07.204Z,7.32
2022-09-07T10:18:54.349Z,3.01
2022-09-07T10:21:26.690Z,3.01
2022-09-07T10:24:14.937Z,3.08
2022-09-07T10:26:42.912Z,3.84
2022-09-07T10:29:30.728Z,2.82
2022-09-07T10:32:06.903Z,3.99
2022-09-07T10:34:42.625Z,4.12
2022-09-07T10:37:40.034Z,3.47
2022-09-07T10:40:21.047Z,3.73
2022-09-07T10:43:21.105Z,3.24
2022-09-07T10:49:23.925Z,3.21
2022-09-07T10:52:10.880Z,3.29
2022-09-07T10:55:01.484Z,3.04
2022-09-07T10:57:32.406Z,3.59
2022-09-07T11:00:10.126Z,3.76
2022-09-07T11:06:10.709Z,3.83
2022-09-07T11:09:16.576Z,3.61
2022-09-07T11:12:14.921Z,3.62
2022-09-07T11:14:50.205Z,3.98
2022-09-07T11:17:27.533Z,3.40
2022-09-07T11:20:13.936Z,3.54
2022-09-07T11:23:18.060Z,3.73
2022-09-07T11:26:06.881Z,3.80
2022-09-07T11:31:49.015Z,4.22
2022-09-07T11:34:26.010Z,4.37
2022-09-07T11:37:06.442Z,4.49
2022-09-07T11:39:48.029Z,4.73
2022-09-07T11:45:37.154Z,4.81
2022-09-07T11:48:38.554Z,4.92
2022-09-07T11:51:22.450Z,5.22
2022-09-07T11:54:17.971Z,5.25
2022-09-07T11:56:53.633Z,5.23
2022-09-07T11:59:28.157Z,5.38
2022-09-07T12:01:54.872Z,5.28
2022-09-07T12:04:43.555Z,5.02
2022-09-07T12:07:19.141Z,5.20
2022-09-07T12:10:04.694Z,5.24
2022-09-07T12:12:52.902Z,5.24
2022-09-07T12:15:27.634Z,4.85
2022-09-07T12:18:26.574Z,5.05
2022-09-07T12:20:53.731Z,5.44
2022-09-07T12:23:28.439Z,5.41
2022-09-07T12:26:38.161Z,5.80
2022-09-07T12:29:20.157Z,5.74
2022-09-07T12:34:35.937Z,5.23
2022-09-07T12:37:36.865Z,5.46
2022-09-07T12:40:29.455Z,5.33
2022-09-07T12:43:17.144Z,5.18
2022-09-07T12:45:43.649Z,5.25
2022-09-07T12:48:16.269Z,5.11
2022-09-07T12:51:04.483Z,4.98
2022-09-07T12:53:50.597Z,5.05
2022-09-07T12:56:43.080Z,4.78
2022-09-07T12:59:43.417Z,5.02
2022-09-07T13:02:10.037Z,5.13
2022-09-07T13:05:01.285Z,5.09
2022-09-07T13:08:29.434Z,4.97
2022-09-07T13:10:56.514Z,4.57
2022-09-07T13:16:14.549Z,4.97
2022-09-07T13:18:43.706Z,4.67
2022-09-07T13:21:10.317Z,4.88
2022-09-07T13:23:42.295Z,4.65
2022-09-07T13:26:13.067Z,4.76
2022-09-07T13:28:56.220Z,4.63
2022-09-07T13:32:03.649Z,4.96
2022-09-07T13:34:33.265Z,4.70
2022-09-07T13:37:16.367Z,5.08
2022-09-07T13:39:46.896Z,5.45
2022-09-07T13:42:24.397Z,6.19
2022-09-07T13:44:58.886Z,5.55
2022-09-07T13:47:59.437Z,6.46
2022-09-07T13:50:52.653Z,6.34
2022-09-07T13:53:45.321Z,4.83
2022-09-07T13:56:30.511Z,5.58
2022-09-07T13:58:57.413Z,5.56
2022-09-07T14:01:28.924Z,5.59
2022-09-07T14:04:02.260Z,5.92
2022-09-07T14:06:32.844Z,5.54
2022-09-07T14:09:14.600Z,6.48
2022-09-07T14:11:53.898Z,5.75
2022-09-07T14:14:31.165Z,6.82
2022-09-07T14:17:00.540Z,5.59
2022-09-07T14:19:49.752Z,6.05
2022-09-07T14:22:21.857Z,5.48
2022-09-07T14:24:57.647Z,5.63
2022-09-07T14:27:35.895Z,5.59
2022-09-07T14:30:21.300Z,5.52
2022-09-07T14:32:53.423Z,5.62
2022-09-07T14:35:23.535Z,6.41
2022-09-07T14:37:51.190Z,5.91
2022-09-07T14:40:22.018Z,5.75
2022-09-07T14:42:50.736Z,5.10
2022-09-07T14:45:20.092Z,5.69
2022-09-07T14:47:50.478Z,5.33
2022-09-07T14:50:30.873Z,5.36
2022-09-07T14:53:41.204Z,5.39
2022-09-07T14:56:10.457Z,5.01
2022-09-07T14:58:37.261Z,4.92
2022-09-07T15:04:01.392Z,5.34
2022-09-07T15:09:30.467Z,5.33
2022-09-07T15:12:06.220Z,5.12
2022-09-07T15:14:32.959Z,5.24
2022-09-07T15:19:48.882Z,5.63
2022-09-07T15:22:18.556Z,5.28
2022-09-07T15:24:51.328Z,5.52
2022-09-07T15:27:29.231Z,6.35
2022-09-07T15:29:58.231Z,5.95
2022-09-07T15:32:24.842Z,5.93
2022-09-07T15:34:51.532Z,5.83
2022-09-07T15:41:10.464Z,5.81
2022-09-07T15:43:33.853Z,5.89
2022-09-07T15:46:04.629Z,5.76
2022-09-07T15:48:31.528Z,5.96
2022-09-07T15:52:04.684Z,5.60
2022-09-07T15:54:11.651Z,5.81
2022-09-07T15:56:38.853Z,5.73
2022-09-07T15:59:06.309Z,5.53
2022-09-07T16:04:19.862Z,6.01
2022-09-07T16:06:48.293Z,5.75
2022-09-07T16:09:15.209Z,5.39
2022-09-07T16:11:42.999Z,5.69
2022-09-07T16:14:09.748Z,7.73
2022-09-07T16:19:23.232Z,10.21
2022-09-07T16:21:49.875Z,6.31
2022-09-07T16:24:16.547Z,7.25
2022-09-07T16:26:43.190Z,7.40
2022-09-07T16:29:09.791Z,7.38
2022-09-07T16:31:37.100Z,6.78
2022-09-07T16:34:04.303Z,7.93
2022-09-07T16:36:31.038Z,6.67
2022-09-07T16:39:00.338Z,7.24
2022-09-07T16:41:30.342Z,7.71
2022-09-07T16:43:58.350Z,7.91
2022-09-07T16:46:28.771Z,7.22
2022-09-07T16:48:55.445Z,8.60
2022-09-07T16:51:23.858Z,7.35
2022-09-07T16:53:53.555Z,7.18
2022-09-07T16:56:26.837Z,7.60
2022-09-07T16:59:05.074Z,7.63
2022-09-07T17:01:34.924Z,7.29
2022-09-07T17:04:05.431Z,6.61
2022-09-07T17:06:34.827Z,7.09
2022-09-07T17:09:01.484Z,6.43
2022-09-07T17:11:34.225Z,6.15
2022-09-07T17:14:01.677Z,5.98
2022-09-07T17:16:31.211Z,5.97
2022-09-07T17:21:46.336Z,11.39
2022-09-07T17:24:13.171Z,10.45
2022-09-07T17:26:42.124Z,8.33
2022-09-07T17:29:12.767Z,7.71
2022-09-07T17:34:26.232Z,7.30
2022-09-07T17:36:52.837Z,7.99
2022-09-07T17:39:20.003Z,8.29
2022-09-07T17:41:48.723Z,10.38
2022-09-07T17:44:15.877Z,10.61
2022-09-07T17:46:42.695Z,9.86
2022-09-07T17:49:10.538Z,8.89
2022-09-07T17:51:37.189Z,8.42
2022-09-07T17:54:10.177Z,7.87
2022-09-07T17:56:37.763Z,8.55
2022-09-07T18:01:51.448Z,6.82
2022-09-07T18:04:18.161Z,7.30
2022-09-07T18:06:44.956Z,7.35
2022-09-07T18:09:12.546Z,7.19
2022-09-07T18:11:48.174Z,7.07
2022-09-07T18:14:15.661Z,6.99
2022-09-07T18:16:45.119Z,7.72
2022-09-07T18:19:12.942Z,7.33
2022-09-07T18:21:41.501Z,7.12
2022-09-07T18:24:14.256Z,7.35
2022-09-07T18:26:41.096Z,6.95
2022-09-07T18:29:25.795Z,6.17
2022-09-07T18:31:54.611Z,6.35
2022-09-07T18:34:21.852Z,6.21
2022-09-07T18:36:48.477Z,7.95
2022-09-07T18:39:15.097Z,7.12
2022-09-07T18:41:41.773Z,16.26
2022-09-07T18:45:26.995Z,16.09
2022-09-07T18:46:55.286Z,6.89
2022-09-07T18:49:21.963Z,7.86
2022-09-07T18:54:35.440Z,6.83
2022-09-07T18:57:02.062Z,13.55
2022-09-07T18:59:30.771Z,13.67
2022-09-07T19:02:01.562Z,17.06
2022-09-07T19:05:49.536Z,12.92
2022-09-07T19:07:17.763Z,6.76
2022-09-07T19:09:44.467Z,2.47
2022-09-07T19:12:11.105Z,1.52
2022-09-07T19:14:37.892Z,1.21
2022-09-07T19:17:04.549Z,0.88
2022-09-07T19:19:31.139Z,1.02
2022-09-07T19:21:57.741Z,1.14
2022-09-07T19:24:24.521Z,1.44
2022-09-07T19:26:58.065Z,1.64
2022-09-07T19:29:27.542Z,1.64
2022-09-07T19:31:54.223Z,1.62
2022-09-07T19:34:20.884Z,1.91
2022-09-07T19:36:47.547Z,1.73
2022-09-07T19:39:14.385Z,1.90
2022-09-07T19:41:41.034Z,1.89
2022-09-07T19:44:08.354Z,2.00
2022-09-07T19:46:34.980Z,1.84
2022-09-07T19:49:02.127Z,1.92
2022-09-07T19:51:30.104Z,1.94
2022-09-07T19:53:59.225Z,1.90
2022-09-07T19:56:25.867Z,1.93
2022-09-07T19:58:52.678Z,1.94
2022-09-07T20:01:22.854Z,1.92
2022-09-07T20:03:57.692Z,2.03
2022-09-07T20:06:27.715Z,1.80
2022-09-07T20:08:56.497Z,1.71
2022-09-07T20:11:25.437Z,1.71
2022-09-07T20:13:52.270Z,1.75
2022-09-07T20:16:19.694Z,1.68
2022-09-07T20:18:49.538Z,1.87
2022-09-07T20:21:19.428Z,1.72
2022-09-07T20:23:46.711Z,1.76
2022-09-07T20:26:16.462Z,1.80
2022-09-07T20:28:44.162Z,1.87
2022-09-07T20:31:14.815Z,1.83
2022-09-07T20:33:43.880Z,1.88
2022-09-07T20:36:16.305Z,1.85
2022-09-07T20:38:45.881Z,1.86
2022-09-07T20:41:42.017Z,1.93
2022-09-07T20:44:11.848Z,2.02
2022-09-07T20:46:39.135Z,2.02
2022-09-07T20:49:08.755Z,1.94
2022-09-07T20:51:35.650Z,1.83
2022-09-07T20:54:02.512Z,1.69
2022-09-07T20:56:32.372Z,1.57
2022-09-07T20:59:02.358Z,1.78
2022-09-07T21:01:31.534Z,1.66
2022-09-07T21:04:00.669Z,1.68
2022-09-07T21:06:29.431Z,1.67
2022-09-07T21:08:56.634Z,1.65
2022-09-07T21:11:26.490Z,1.59
2022-09-07T21:14:10.762Z,1.83
2022-09-07T21:16:38.531Z,1.68
2022-09-07T21:19:07.653Z,1.54
2022-09-07T21:21:38.979Z,1.73
2022-09-07T21:24:14.659Z,1.83
2022-09-07T21:26:41.430Z,1.82
2022-09-07T21:29:13.391Z,1.70
2022-09-07T21:31:40.132Z,1.60
2022-09-07T21:34:06.804Z,1.62
2022-09-07T21:36:33.640Z,1.68
2022-09-07T21:39:00.338Z,1.65
2022-09-07T21:41:27.406Z,1.73
2022-09-07T21:44:00.113Z,1.70
2022-09-07T21:46:30.016Z,1.52
2022-09-07T21:48:57.977Z,1.38
2022-09-07T21:51:26.723Z,1.75
2022-09-07T21:53:58.642Z,1.52
2022-09-07T21:56:46.677Z,1.77
2022-09-07T21:59:13.665Z,1.89
2022-09-07T22:01:40.393Z,2.38
2022-09-07T22:04:07.164Z,2.34
2022-09-07T22:06:35.086Z,2.55
2022-09-07T22:09:03.780Z,2.67
2022-09-07T22:11:31.257Z,2.44
2022-09-07T22:14:01.127Z,2.21
2022-09-07T22:16:28.780Z,2.09
2022-09-07T22:18:55.669Z,1.80
2022-09-07T22:21:28.382Z,1.71
2022-09-07T22:23:57.891Z,1.61
2022-09-07T22:26:27.829Z,1.69
2022-09-07T22:28:58.006Z,1.54
2022-09-07T22:31:36.995Z,1.41
2022-09-07T22:34:10.061Z,1.31
2022-09-07T22:36:40.231Z,1.45
2022-09-07T22:39:11.450Z,1.53
2022-09-07T22:41:39.363Z,1.41
2022-09-07T22:44:09.852Z,1.58
2022-09-07T22:46:39.290Z,1.46
2022-09-07T22:49:07.367Z,1.52
2022-09-07T22:51:34.346Z,1.62
2022-09-07T22:54:00.985Z,1.72
2022-09-07T22:56:30.355Z,1.69
2022-09-07T22:59:00.456Z,1.86
2022-09-07T23:01:29.948Z,1.94
2022-09-07T23:03:57.858Z,1.62
2022-09-07T23:06:30.593Z,1.72
2022-09-07T23:09:00.019Z,1.73
2022-09-07T23:11:27.259Z,1.53
2022-09-07T23:13:58.803Z,1.76
2022-09-07T23:16:26.738Z,1.79
2022-09-07T23:18:54.522Z,1.70
2022-09-07T23:21:21.699Z,1.73
2022-09-07T23:23:57.243Z,1.77
2022-09-07T23:26:26.347Z,1.59
2022-09-07T23:28:55.529Z,1.70
2022-09-07T23:31:23.311Z,2.07
2022-09-07T23:33:50.532Z,2.78
2022-09-07T23:36:17.802Z,3.45
2022-09-07T23:38:45.968Z,1.73
2022-09-07T23:41:12.973Z,1.88
2022-09-07T23:43:40.133Z,2.77
2022-09-07T23:46:07.074Z,2.63
2022-09-07T23:48:33.741Z,2.64
2022-09-07T23:51:00.387Z,2.77
2022-09-07T23:53:27.111Z,2.85
2022-09-07T23:55:53.880Z,2.78
2022-09-07T23:58:22.757Z,2.06
